Time;durP1;ratioP1;P1;durP2;ratioP2;P2;SDS_P1;SDS_P2;PMS_P1;PMS_P2;Temp;Humidity;BMP_temperature;BMP_pressure;BME280_temperature;BME280_humidity;BME280_pressure;Samples;Min_cycle;Max_cycle;Signal;HPM_P1;HPM_P2
2022/10/09 00:01:24;;;;;;;17.00;11.00;;;;;;;20.00;72.94;101227.06;5033376;28;20424;-71
2022/10/09 00:03:54;;;;;;;20.73;11.13;;;;;;;20.07;73.21;101226.53;5032922;28;20049;-71
2022/10/09 00:06:31;;;;;;;16.90;10.07;;;;;;;20.01;72.60;101234.22;5033079;28;20120;-71
2022/10/09 00:09:03;;;;;;;18.23;10.35;;;;;;;20.05;72.75;101228.84;5033226;28;20412;-71
2022/10/09 00:11:32;;;;;;;16.20;10.63;;;;;;;20.10;72.84;101223.91;5033127;28;20044;-71
2022/10/09 00:14:02;;;;;;;15.05;10.13;;;;;;;20.07;72.77;101227.34;5033109;28;20052;-71
2022/10/09 00:16:30;;;;;;;14.85;9.32;;;;;;;19.98;73.23;101223.75;5031667;28;20514;-71
2022/10/09 00:18:58;;;;;;;16.42;9.57;;;;;;;19.90;74.17;101238.47;5032882;28;20037;-71
2022/10/09 00:21:31;;;;;;;19.67;10.25;;;;;;;19.72;74.96;101235.69;5033103;28;20064;-71
2022/10/09 00:24:01;;;;;;;16.48;9.40;;;;;;;19.65;76.57;101235.38;5032778;28;20045;-71
2022/10/09 00:26:30;;;;;;;16.42;9.80;;;;;;;19.65;76.46;101232.59;5033160;28;20130;-71
2022/10/09 00:28:58;;;;;;;15.35;9.00;;;;;;;19.60;76.94;101237.16;5032709;28;20413;-71
2022/10/09 00:31:26;;;;;;;15.68;10.05;;;;;;;19.31;79.30;101235.81;5032624;28;20052;-71
2022/10/09 00:33:55;;;;;;;19.27;10.25;;;;;;;19.25;80.30;101230.75;5047803;28;20378;-71
2022/10/09 00:36:24;;;;;;;18.23;10.75;;;;;;;19.22;81.40;101237.78;5032504;28;20052;-71
2022/10/09 00:38:53;;;;;;;15.05;9.55;;;;;;;19.11;81.90;101242.78;5031521;28;20049;-71
2022/10/09 00:41:28;;;;;;;15.45;10.20;;;;;;;19.09;82.42;101236.75;5032247;28;20049;-72
2022/10/09 00:43:58;;;;;;;22.17;11.07;;;;;;;18.93;83.83;101231.59;5031261;28;20492;-71
2022/10/09 00:46:40;;;;;;;15.65;10.20;;;;;;;18.84;84.39;101232.72;5032055;28;20048;-71
2022/10/09 00:49:10;;;;;;;18.60;10.88;;;;;;;18.91;83.51;101227.50;5032334;28;20045;-71
2022/10/09 00:51:40;;;;;;;20.15;10.90;;;;;;;18.87;84.29;101229.31;5032200;28;20045;-72
2022/10/09 00:54:13;;;;;;;17.67;11.63;;;;;;;18.88;84.54;101233.72;5032251;28;20042;-71
2022/10/09 00:56:42;;;;;;;18.93;11.00;;;;;;;18.89;83.86;101230.63;5032158;28;20388;-71
2022/10/09 00:59:10;;;;;;;21.23;11.60;;;;;;;18.86;84.38;101231.25;5032025;28;20136;-71
2022/10/09 01:01:40;;;;;;;18.42;11.43;;;;;;;18.73;85.26;101216.34;5031541;28;20048;-72
2022/10/09 01:04:08;;;;;;;23.80;11.30;;;;;;;18.73;85.67;101218.34;5032123;28;20045;-71
2022/10/09 01:06:39;;;;;;;17.40;10.80;;;;;;;18.76;85.46;101226.81;5031924;28;20373;-71
2022/10/09 01:09:18;;;;;;;19.50;10.98;;;;;;;18.74;85.50;101220.78;5031979;28;20050;-71
2022/10/09 01:11:57;;;;;;;17.55;10.80;;;;;;;18.72;85.84;101219.47;5031963;28;20041;-71
2022/10/09 01:14:30;;;;;;;17.08;10.68;;;;;;;18.76;85.56;101220.44;5031011;28;20158;-71
2022/10/09 01:17:04;;;;;;;18.88;11.15;;;;;;;18.83;86.11;101220.00;5031950;28;20048;-71
2022/10/09 01:19:51;;;;;;;17.40;11.23;;;;;;;18.84;85.32;101221.63;5031930;28;20412;-71
2022/10/09 01:22:34;;;;;;;17.02;10.20;;;;;;;18.88;84.42;101222.63;5031952;28;20400;-71
2022/10/09 01:25:13;;;;;;;18.42;12.43;;;;;;;18.92;85.14;101218.06;5018246;28;20476;-71
2022/10/09 01:27:41;;;;;;;17.90;11.52;;;;;;;19.00;85.03;101210.91;5027213;28;20050;-71
2022/10/09 01:30:11;;;;;;;18.13;10.98;;;;;;;18.90;85.50;101221.16;5018231;28;20037;-71
2022/10/09 01:32:44;;;;;;;15.90;10.32;;;;;;;18.96;85.16;101209.94;5027963;28;20408;-71
2022/10/09 01:35:14;;;;;;;15.95;11.18;;;;;;;18.91;84.36;101206.16;5018021;28;20045;-71
2022/10/09 01:37:44;;;;;;;17.85;11.18;;;;;;;18.80;85.04;101211.19;5031813;28;20349;-71
2022/10/09 01:40:15;;;;;;;19.95;10.70;;;;;;;18.91;83.74;101208.09;5031664;28;20046;-71
2022/10/09 01:42:45;;;;;;;17.92;11.73;;;;;;;18.86;84.75;101202.72;5031844;28;20060;-71
2022/10/09 01:45:15;;;;;;;21.73;11.45;;;;;;;18.85;84.35;101204.69;5031751;28;20059;-71
2022/10/09 01:47:43;;;;;;;18.90;11.43;;;;;;;18.90;84.79;101206.47;5031619;28;20504;-71
2022/10/09 01:50:20;;;;;;;17.58;10.82;;;;;;;18.94;84.35;101204.69;5031561;28;20065;-72
2022/10/09 01:53:05;;;;;;;19.27;11.02;;;;;;;18.99;83.92;101201.78;5031695;28;20050;-71
2022/10/09 01:55:39;;;;;;;;;;;;;;;18.98;84.11;101208.47;5047389;28;20049;-71
2022/10/09 01:58:18;;;;;;;18.95;11.50;;;;;;;18.99;85.04;101207.31;5031664;28;19928;-71
2022/10/09 02:01:04;;;;;;;19.35;10.95;;;;;;;18.93;85.14;101209.41;5031561;28;20385;-71
2022/10/09 02:03:34;;;;;;;21.13;11.67;;;;;;;18.85;86.14;101213.00;5030299;28;20057;-71
2022/10/09 02:06:08;;;;;;;20.50;11.75;;;;;;;18.88;86.27;101208.75;5031422;28;20045;-71
2022/10/09 02:08:38;;;;;;;18.83;11.93;;;;;;;18.85;85.44;101201.91;5046945;28;20042;-71
2022/10/09 02:11:06;;;;;;;18.00;11.52;;;;;;;18.85;86.07;101213.00;5031254;28;20056;-71
2022/10/09 02:13:35;;;;;;;23.35;11.20;;;;;;;18.76;86.32;101204.63;5029690;28;20049;-71
2022/10/09 02:16:28;;;;;;;21.48;12.18;;;;;;;18.71;86.17;101202.00;5031259;28;20052;-71
2022/10/09 02:19:11;;;;;;;18.02;11.80;;;;;;;18.59;86.55;101205.41;5035116;28;20056;-71
2022/10/09 02:21:54;;;;;;;19.58;12.05;;;;;;;18.73;84.96;101201.69;5035169;28;20041;-71
2022/10/09 02:24:23;;;;;;;21.00;11.68;;;;;;;18.74;85.66;101192.25;5035010;28;20045;-71
2022/10/09 02:26:53;;;;;;;18.67;12.00;;;;;;;18.71;85.36;101201.22;5034981;28;20049;-71
2022/10/09 02:29:21;;;;;;;21.00;12.70;;;;;;;18.64;85.84;101201.66;5034813;28;20412;-71
2022/10/09 02:31:49;;;;;;;21.33;12.00;;;;;;;18.65;85.87;101206.91;5034821;28;20045;-71
2022/10/09 02:34:18;;;;;;;19.40;12.10;;;;;;;18.65;85.17;101203.28;5034989;28;20049;-71
2022/10/09 02:36:47;;;;;;;18.50;11.95;;;;;;;18.64;85.40;101207.22;5034909;28;20049;-71
2022/10/09 02:39:15;;;;;;;21.38;12.43;;;;;;;18.57;85.41;101206.84;5034798;28;20049;-71
2022/10/09 02:41:43;;;;;;;20.83;12.43;;;;;;;18.63;85.13;101203.59;5034643;28;20037;-71
2022/10/09 02:44:11;;;;;;;19.23;11.20;;;;;;;18.65;85.94;101203.28;5034642;28;20049;-71
2022/10/09 02:46:39;;;;;;;21.35;12.38;;;;;;;18.73;85.33;101198.94;5034187;28;20045;-71
2022/10/09 02:49:07;;;;;;;23.67;12.50;;;;;;;18.73;86.09;101202.50;5034597;28;20050;-71
2022/10/09 02:51:35;;;;;;;20.05;12.15;;;;;;;18.85;85.03;101201.06;5034397;28;20052;-71
2022/10/09 02:54:04;;;;;;;21.55;12.80;;;;;;;18.71;85.99;101195.66;5034599;28;20042;-71
2022/10/09 02:56:32;;;;;;;19.90;11.50;;;;;;;18.74;86.77;101197.78;5034804;28;20045;-71
2022/10/09 02:59:06;;;;;;;17.73;11.50;;;;;;;18.81;85.66;101200.91;5034691;28;20402;-71
2022/10/09 03:01:34;;;;;;;23.67;12.25;;;;;;;18.79;86.32;101190.16;5034503;28;20068;-71
2022/10/09 03:04:02;;;;;;;21.67;12.32;;;;;;;18.78;86.88;101194.03;5034209;28;20483;-71
2022/10/09 03:06:30;;;;;;;18.85;11.68;;;;;;;18.81;87.77;101189.81;5034084;28;20052;-71
2022/10/09 03:08:58;;;;;;;20.90;12.43;;;;;;;18.83;87.56;101197.81;5034187;28;20052;-71
2022/10/09 03:11:26;;;;;;;20.15;11.48;;;;;;;18.84;86.97;101199.44;5029624;28;20396;-71
2022/10/09 03:13:55;;;;;;;17.35;11.93;;;;;;;18.83;87.07;101208.91;5026639;28;20038;-71
2022/10/09 03:16:24;;;;;;;21.70;11.73;;;;;;;18.79;86.03;101204.00;5049234;28;20044;-71
2022/10/09 03:18:53;;;;;;;16.70;10.98;;;;;;;18.78;86.79;101196.81;5033982;28;20049;-71
2022/10/09 03:21:23;;;;;;;18.85;10.98;;;;;;;18.79;86.67;101212.34;5033830;28;20398;-71
2022/10/09 03:23:52;;;;;;;19.70;12.60;;;;;;;18.85;85.86;101212.16;5033767;28;20045;-71
2022/10/09 03:26:22;;;;;;;17.52;10.95;;;;;;;18.84;85.74;101213.31;5033716;28;20049;-71
2022/10/09 03:28:52;;;;;;;20.40;12.18;;;;;;;18.80;86.48;101213.97;5033762;28;20052;-71
2022/10/09 03:31:21;;;;;;;19.98;11.65;;;;;;;18.62;86.64;101210.28;5033627;28;20053;-71
2022/10/09 03:34:10;;;;;;;16.60;11.63;;;;;;;18.63;87.59;101211.13;5033747;28;20040;-71
2022/10/09 03:36:39;;;;;;;21.58;12.48;;;;;;;18.61;87.07;101213.38;5033591;28;20391;-71
2022/10/09 03:39:07;;;;;;;21.05;11.50;;;;;;;18.69;85.98;101215.38;5033638;28;20064;-71
2022/10/09 03:41:35;;;;;;;19.67;12.85;;;;;;;18.68;86.33;101219.31;5033462;28;20045;-71
2022/10/09 03:44:03;;;;;;;18.10;11.38;;;;;;;18.58;86.84;101222.34;5033611;28;20045;-71
2022/10/09 03:46:31;;;;;;;19.92;11.68;;;;;;;18.72;85.88;101220.28;5033281;28;20048;-71
2022/10/09 03:48:59;;;;;;;20.15;11.75;;;;;;;18.73;84.68;101210.81;5033480;28;20045;-71
2022/10/09 03:51:27;;;;;;;23.30;11.50;;;;;;;18.79;83.78;101220.66;5033370;28;20037;-71
2022/10/09 03:53:55;;;;;;;17.75;11.07;;;;;;;18.84;83.76;101214.13;5033265;28;20067;-71
2022/10/09 03:56:23;;;;;;;21.20;11.10;;;;;;;18.82;84.12;101226.69;5033325;28;20041;-71
2022/10/09 03:58:51;;;;;;;19.73;12.65;;;;;;;18.82;84.17;101221.13;5032938;28;20056;-71
2022/10/09 04:01:19;;;;;;;18.83;11.20;;;;;;;18.86;83.71;101224.91;5028656;28;20064;-71
2022/10/09 04:03:46;;;;;;;21.92;11.98;;;;;;;18.81;83.81;101223.09;5030234;28;20045;-71
2022/10/09 04:06:14;;;;;;;19.33;10.90;;;;;;;18.76;84.49;101221.28;5033135;28;20042;-71
2022/10/09 04:08:42;;;;;;;21.77;10.80;;;;;;;18.72;84.38;101217.50;5032976;28;20045;-71
2022/10/09 04:11:10;;;;;;;19.30;11.30;;;;;;;18.65;84.98;101217.16;5031534;28;20064;-71
2022/10/09 04:13:38;;;;;;;20.50;12.52;;;;;;;18.66;84.88;101216.84;5033012;28;20493;-71
2022/10/09 04:16:11;;;;;;;23.35;11.45;;;;;;;18.66;84.86;101229.88;5031432;28;20057;-71
2022/10/09 04:18:41;;;;;;;23.42;11.15;;;;;;;18.70;84.02;101225.34;5032859;28;20053;-70
2022/10/09 04:21:09;;;;;;;18.42;10.85;;;;;;;18.53;86.06;101226.88;5033028;28;20048;-70
2022/10/09 04:23:40;;;;;;;18.50;11.25;;;;;;;18.51;84.89;101229.16;5032847;28;20400;-71
2022/10/09 04:26:12;;;;;;;18.13;10.95;;;;;;;18.44;86.05;101226.03;5032584;28;20045;-70
2022/10/09 04:28:40;;;;;;;17.15;11.25;;;;;;;18.39;85.99;101226.16;5032693;28;20076;-70
2022/10/09 04:31:08;;;;;;;17.83;11.38;;;;;;;18.38;86.20;101232.84;5032547;28;20057;-71
2022/10/09 04:33:36;;;;;;;17.73;11.00;;;;;;;18.45;85.67;101224.91;5032691;28;20117;-70
2022/10/09 04:36:06;;;;;;;22.08;11.23;;;;;;;18.41;85.67;101229.44;5031746;28;20404;-70
2022/10/09 04:38:34;;;;;;;19.92;11.88;;;;;;;18.33;86.04;101232.97;5032216;28;20041;-70
2022/10/09 04:41:05;;;;;;;20.02;11.57;;;;;;;18.34;85.46;101226.31;5032398;28;20045;-70
2022/10/09 04:43:34;;;;;;;19.10;11.35;;;;;;;18.37;86.09;101231.19;5032321;28;20040;-70
2022/10/09 04:46:06;;;;;;;22.67;11.70;;;;;;;18.40;85.34;101236.13;5032297;28;20056;-70
2022/10/09 04:48:45;;;;;;;19.98;11.15;;;;;;;18.42;85.28;101244.13;5032289;28;20049;-70
2022/10/09 04:51:14;;;;;;;18.15;10.90;;;;;;;18.38;85.42;101249.47;5032223;28;20045;-70
2022/10/09 04:53:42;;;;;;;18.20;11.77;;;;;;;18.42;85.34;101236.59;5030846;28;20609;-70
2022/10/09 04:56:14;;;;;;;21.42;11.68;;;;;;;18.45;86.04;101247.06;5032114;28;20046;-70
2022/10/09 04:58:43;;;;;;;18.40;11.00;;;;;;;18.37;86.28;101234.78;5031752;28;20388;-70
2022/10/09 05:01:17;;;;;;;20.52;11.52;;;;;;;18.46;85.05;101245.09;5032519;28;20049;-70
2022/10/09 05:03:46;;;;;;;19.42;11.32;;;;;;;18.43;85.82;101241.00;5030608;28;20046;-70
2022/10/09 05:06:14;;;;;;;18.90;10.80;;;;;;;18.42;86.45;101239.38;5031899;28;20480;-70
2022/10/09 05:08:43;;;;;;;21.08;11.07;;;;;;;18.44;87.16;101245.44;5031844;28;20136;-70
2022/10/09 05:11:18;;;;;;;20.55;10.82;;;;;;;18.50;86.18;101244.16;5030587;28;20050;-70
2022/10/09 05:13:49;;;;;;;18.58;11.60;;;;;;;18.46;86.70;101245.09;5032082;28;20052;-70
2022/10/09 05:16:21;;;;;;;21.65;12.43;;;;;;;18.41;88.33;101243.28;5029529;28;20041;-70
2022/10/09 05:18:52;;;;;;;16.40;10.88;;;;;;;18.45;88.17;101246.22;5031439;28;20396;-70
2022/10/09 05:21:20;;;;;;;24.42;12.30;;;;;;;18.56;87.90;101246.81;5031729;28;20049;-70
2022/10/09 05:23:48;;;;;;;19.90;12.15;;;;;;;18.46;88.75;101245.94;5031922;28;20404;-70
2022/10/09 05:26:18;;;;;;;22.05;12.27;;;;;;;18.42;89.57;101247.69;5030903;28;20454;-71
2022/10/09 05:28:48;;;;;;;24.33;12.63;;;;;;;18.55;88.56;101245.97;5031064;28;20045;-70
2022/10/09 05:31:25;;;;;;;20.02;12.32;;;;;;;18.56;88.98;101244.03;5030965;28;20045;-71
2022/10/09 05:33:55;;;;;;;20.67;12.45;;;;;;;18.50;89.27;101255.25;5031985;28;20049;-71
2022/10/09 05:36:23;;;;;;;19.75;11.90;;;;;;;18.54;88.71;101249.88;5031603;28;20056;-70
2022/10/09 05:38:51;;;;;;;19.15;11.70;;;;;;;18.42;89.44;101249.66;5047016;28;20046;-71
2022/10/09 05:41:19;;;;;;;20.15;13.18;;;;;;;18.33;90.49;101247.63;5031622;28;20072;-71
2022/10/09 05:43:49;;;;;;;21.00;13.60;;;;;;;18.50;90.15;101258.03;5031851;28;20072;-71
2022/10/09 05:46:24;;;;;;;20.05;13.13;;;;;;;18.30;90.96;101253.00;5032488;28;20046;-71
2022/10/09 05:48:58;;;;;;;23.33;14.25;;;;;;;18.47;90.58;101247.56;5035683;28;20041;-70
2022/10/09 05:51:29;;;;;;;26.13;13.93;;;;;;;18.19;91.39;101247.72;5050964;28;20045;-71
2022/10/09 05:53:58;;;;;;;21.60;13.57;;;;;;;18.24;92.09;101258.66;5035709;28;20044;-71
2022/10/09 05:56:29;;;;;;;22.83;13.43;;;;;;;18.16;92.69;101264.13;5035742;28;20061;-70
2022/10/09 05:59:02;;;;;;;24.52;15.73;;;;;;;18.14;92.55;101261.72;5035381;28;20068;-70
2022/10/09 06:01:33;;;;;;;27.63;15.77;;;;;;;18.33;92.22;101280.09;5032705;28;20400;-70
2022/10/09 06:04:02;;;;;;;25.77;15.15;;;;;;;18.60;90.92;101278.28;5033454;28;20042;-70
2022/10/09 06:06:32;;;;;;;25.75;14.70;;;;;;;18.32;91.51;101284.78;5035190;28;20042;-70
2022/10/09 06:09:00;;;;;;;24.52;14.30;;;;;;;18.39;91.62;101289.91;5034939;28;20057;-70
2022/10/09 06:11:30;;;;;;;26.17;14.02;;;;;;;18.41;91.44;101279.31;5035198;28;20057;-70
2022/10/09 06:14:01;;;;;;;22.55;13.00;;;;;;;18.33;91.96;101282.84;5035116;28;20045;-70
2022/10/09 06:16:31;;;;;;;23.98;13.35;;;;;;;18.23;92.50;101287.50;5050212;28;20065;-70
2022/10/09 06:19:00;;;;;;;22.63;14.18;;;;;;;18.47;92.30;101297.44;5034929;28;20045;-70
2022/10/09 06:21:28;;;;;;;23.10;14.07;;;;;;;18.59;90.50;101287.72;5033645;28;20042;-70
2022/10/09 06:23:59;;;;;;;21.67;13.73;;;;;;;18.54;90.77;101281.16;5035008;28;20396;-70
2022/10/09 06:26:28;;;;;;;25.38;13.35;;;;;;;18.69;90.07;101293.00;5034687;28;20064;-70
2022/10/09 06:28:59;;;;;;;21.20;13.38;;;;;;;18.70;90.79;101296.56;5034662;28;20519;-70
2022/10/09 06:31:29;;;;;;;23.15;13.90;;;;;;;18.59;91.41;101316.28;5034647;28;20064;-70
2022/10/09 06:33:59;;;;;;;23.50;13.35;;;;;;;18.37;91.78;101308.78;5034949;28;20068;-70
2022/10/09 06:36:29;;;;;;;24.52;14.23;;;;;;;18.22;92.68;101308.03;5034651;28;20041;-70
2022/10/09 06:39:02;;;;;;;22.67;14.98;;;;;;;18.43;91.93;101310.28;5032442;28;20041;-69
2022/10/09 06:41:30;;;;;;;27.13;15.00;;;;;;;18.57;90.98;101312.19;5049752;28;20050;-70
2022/10/09 06:44:01;;;;;;;26.15;15.02;;;;;;;18.67;90.88;101314.66;5034577;28;20034;-69
2022/10/09 06:46:31;;;;;;;22.15;13.77;;;;;;;18.79;89.96;101323.25;5034455;28;20045;-70
2022/10/09 06:49:01;;;;;;;21.10;12.43;;;;;;;18.59;90.16;101326.53;5034441;28;20404;-70
2022/10/09 06:51:29;;;;;;;25.55;14.20;;;;;;;18.72;90.45;101327.59;5024889;28;20045;-70
2022/10/09 06:53:59;;;;;;;22.15;14.20;;;;;;;18.90;89.31;101320.16;5020652;28;20048;-70
2022/10/09 06:56:30;;;;;;;19.85;12.60;;;;;;;19.22;87.49;101334.03;5034491;28;20045;-70
2022/10/09 06:59:02;;;;;;;21.83;12.98;;;;;;;18.81;89.75;101328.44;5033233;28;20412;-70
2022/10/09 07:01:31;;;;;;;19.85;12.70;;;;;;;18.98;89.01;101346.31;5034326;28;20049;-70
2022/10/09 07:04:05;;;;;;;21.02;12.77;;;;;;;19.10;87.95;101345.75;5034113;28;20053;-70
2022/10/09 07:06:36;;;;;;;;;;;;;;;19.18;87.98;101353.28;5025128;28;20052;-70
2022/10/09 07:09:07;;;;;;;20.75;12.77;;;;;;;19.05;88.69;101353.06;5032784;28;19921;-70
2022/10/09 07:11:38;;;;;;;21.00;13.00;;;;;;;19.20;87.89;101353.78;5034063;28;20034;-70
2022/10/09 07:14:08;;;;;;;22.15;13.38;;;;;;;19.27;88.14;101356.09;5033161;28;20052;-70
2022/10/09 07:16:39;;;;;;;20.83;12.13;;;;;;;19.61;86.33;101372.03;5034013;28;20046;-71
2022/10/09 07:19:09;;;;;;;19.67;12.98;;;;;;;19.83;85.46;101370.28;5033908;28;20054;-71
2022/10/09 07:21:40;;;;;;;25.98;14.50;;;;;;;19.80;85.44;101365.38;5032756;28;20060;-71
2022/10/09 07:24:09;;;;;;;20.45;13.57;;;;;;;19.99;83.64;101375.44;5032775;28;20042;-71
2022/10/09 07:26:41;;;;;;;20.65;12.88;;;;;;;20.26;82.03;101368.72;5032703;28;20041;-71
2022/10/09 07:29:11;;;;;;;23.25;11.48;;;;;;;20.26;82.01;101363.19;5029836;28;20056;-81
2022/10/09 07:31:39;;;;;;;16.48;11.50;;;;;;;20.79;78.85;101362.28;5033394;28;20049;-83
2022/10/09 07:34:07;;;;;;;21.90;11.35;;;;;;;21.10;77.23;101366.00;5032636;28;20049;-84
2022/10/09 07:36:35;;;;;;;18.13;11.38;;;;;;;21.18;76.37;101371.53;5031532;28;20037;-84
2022/10/09 07:39:04;;;;;;;18.40;12.25;;;;;;;21.17;77.68;101364.28;5033566;28;20042;-82
2022/10/09 07:41:33;;;;;;;15.05;10.68;;;;;;;21.27;76.64;101370.66;5048696;28;20057;-81
2022/10/09 07:44:00;;;;;;;18.20;11.18;;;;;;;21.35;76.15;101367.00;5031434;28;20503;-84
2022/10/09 07:46:28;;;;;;;18.88;11.27;;;;;;;21.40;75.00;101369.59;5033481;28;20068;-82
2022/10/09 07:49:01;;;;;;;15.02;10.10;;;;;;;21.42;75.23;101370.09;5031722;28;20056;-81
2022/10/09 07:51:31;;;;;;;19.20;10.55;;;;;;;21.51;76.25;101374.81;5032859;28;20050;-82
2022/10/09 07:54:01;;;;;;;20.05;10.52;;;;;;;21.39;75.15;101370.75;5032292;28;20045;-70
2022/10/09 07:56:32;;;;;;;14.45;9.65;;;;;;;21.05;76.63;101380.88;5032134;28;20049;-69
2022/10/09 07:59:02;;;;;;;14.52;8.73;;;;;;;21.40;74.23;101374.38;5030770;28;20053;-69
2022/10/09 08:01:31;;;;;;;14.27;8.15;;;;;;;21.41;74.67;101384.34;5028317;28;20049;-70
2022/10/09 08:04:00;;;;;;;14.18;8.15;;;;;;;22.06;71.00;101383.31;5029388;28;20053;-83
2022/10/09 08:06:30;;;;;;;15.65;7.22;;;;;;;22.33;69.52;101383.94;5027577;28;20056;-87
2022/10/09 08:08:59;;;;;;;11.35;7.00;;;;;;;22.22;68.45;101398.28;5029837;28;20057;-85
2022/10/09 08:11:29;;;;;;;10.40;6.25;;;;;;;22.17;66.04;101384.56;5030168;28;20397;-91
2022/10/09 08:13:57;;;;;;;6.07;4.60;;;;;;;22.35;64.44;101396.38;4998601;28;20045;-90
2022/10/09 08:16:26;;;;;;;7.10;3.83;;;;;;;22.22;62.06;101398.28;5020594;28;20481;-90
2022/10/09 08:18:59;;;;;;;3.60;3.05;;;;;;;22.28;60.09;101396.94;5013599;28;20037;-81
2022/10/09 08:21:27;;;;;;;6.55;2.90;;;;;;;22.44;58.95;101398.28;5031922;28;20045;-86
2022/10/09 08:23:57;;;;;;;5.03;2.95;;;;;;;22.52;59.25;101401.00;5009415;28;20049;-85
2022/10/09 08:26:28;;;;;;;5.72;2.90;;;;;;;22.35;56.66;101390.81;5031995;28;20510;-82
2022/10/09 08:28:59;;;;;;;4.93;3.15;;;;;;;22.54;57.14;101393.09;5028083;28;20042;-83
2022/10/09 08:31:28;;;;;;;4.85;3.20;;;;;;;22.51;56.10;101392.94;5030228;28;20061;-83
2022/10/09 08:34:00;;;;;;;6.75;3.05;;;;;;;22.50;54.83;101394.94;5028990;28;20044;-81
2022/10/09 08:36:28;;;;;;;6.55;2.97;;;;;;;22.68;56.48;101400.38;5030609;28;20049;-85
2022/10/09 08:38:56;;;;;;;4.05;2.85;;;;;;;22.68;55.99;101397.59;5044875;28;20042;-87
2022/10/09 08:41:45;;;;;;;6.43;2.95;;;;;;;22.77;55.64;101398.31;5030254;28;20041;-82
2022/10/09 08:44:35;;;;;;;5.03;3.53;;;;;;;22.78;55.35;101396.34;5046122;28;20045;-83
2022/10/09 08:47:17;;;;;;;3.47;2.72;;;;;;;22.72;54.42;101389.34;5030736;28;20392;-81
2022/10/09 08:49:52;;;;;;;6.57;3.33;;;;;;;22.80;54.56;101386.47;5030329;28;20511;-82
2022/10/09 08:52:31;;;;;;;6.22;3.38;;;;;;;22.79;53.79;101397.97;5023677;28;20049;-80
2022/10/09 08:55:18;;;;;;;3.90;3.05;;;;;;;22.68;53.39;101392.81;5020521;28;20049;-82
2022/10/09 08:57:51;;;;;;;3.90;3.20;;;;;;;22.95;54.07;101387.78;5031994;28;20041;-81
2022/10/09 09:00:22;;;;;;;4.07;3.45;;;;;;;22.85;53.54;101399.38;5028573;28;20056;-79
2022/10/09 09:03:07;;;;;;;5.53;3.05;;;;;;;22.79;53.22;101386.81;5030674;28;20076;-84
2022/10/09 09:05:47;;;;;;;7.57;3.10;;;;;;;22.89;54.30;101391.13;5030542;28;20049;-83
2022/10/09 09:08:47;;;;;;;4.15;2.88;;;;;;;23.02;53.20;101378.03;5031349;28;20049;-86
2022/10/09 09:11:30;;;;;;;3.33;2.92;;;;;;;23.06;53.24;101402.09;5031490;28;20496;-85
2022/10/09 09:14:17;;;;;;;4.60;2.85;;;;;;;23.07;52.35;101391.75;5029062;28;20041;-79
2022/10/09 09:16:57;;;;;;;4.60;3.42;;;;;;;23.37;52.76;101388.78;5024357;28;20049;-85
2022/10/09 09:20:15;;;;;;;4.35;3.15;;;;;;;23.23;50.47;101391.91;5042626;28;20045;-82
2022/10/09 09:22:47;;;;;;;4.55;3.03;;;;;;;23.37;51.19;101390.75;5029884;28;20049;-78
2022/10/09 09:25:24;;;;;;;2.70;2.42;;;;;;;23.33;51.02;101391.47;5030852;28;20037;-81
2022/10/09 09:27:57;;;;;;;5.00;3.25;;;;;;;23.39;51.34;101392.03;5031347;28;20453;-81
2022/10/09 09:30:32;;;;;;;3.72;2.83;;;;;;;23.34;51.05;101401.47;5026847;28;20038;-79
2022/10/09 09:33:11;;;;;;;7.25;2.90;;;;;;;23.46;50.25;101385.88;5029281;28;20050;-79
2022/10/09 09:35:48;;;;;;;5.18;3.10;;;;;;;23.59;50.59;101398.69;5030099;28;20041;-81
2022/10/09 09:38:16;;;;;;;4.72;2.95;;;;;;;23.73;50.26;101403.09;5029822;28;20052;-80
2022/10/09 09:40:44;;;;;;;5.35;3.40;;;;;;;23.62;50.21;101400.75;5029958;28;20053;-79
2022/10/09 09:43:18;;;;;;;4.43;3.30;;;;;;;23.69;50.74;101390.97;5029056;28;20068;-80
2022/10/09 09:45:46;;;;;;;4.68;3.20;;;;;;;23.71;50.92;101395.03;5029928;28;20080;-81
2022/10/09 09:48:19;;;;;;;7.40;4.75;;;;;;;23.58;49.64;101382.25;5028653;28;20398;-81
2022/10/09 09:50:51;;;;;;;6.25;3.35;;;;;;;23.70;50.33;101373.06;5029762;28;20054;-79
2022/10/09 09:53:44;;;;;;;3.28;2.90;;;;;;;23.68;49.92;101376.22;5029044;28;20400;-78
2022/10/09 09:56:12;;;;;;;3.00;2.75;;;;;;;23.88;49.96;101380.03;5028374;28;20652;-79
2022/10/09 09:58:54;;;;;;;9.93;3.22;;;;;;;24.08;50.04;101383.03;5026147;28;20407;-80
2022/10/09 10:01:25;;;;;;;5.72;3.47;;;;;;;24.01;50.01;101385.59;5028047;28;20057;-78
2022/10/09 10:03:55;;;;;;;5.68;2.83;;;;;;;23.83;50.84;101380.25;5029698;28;20542;-77
2022/10/09 10:06:31;;;;;;;5.80;2.78;;;;;;;23.95;50.75;101395.38;5029601;28;20050;-81
2022/10/09 10:09:14;;;;;;;16.67;4.13;;;;;;;23.59;51.12;101387.50;5027915;28;20042;-79
2022/10/09 10:11:46;;;;;;;5.70;3.53;;;;;;;23.48;50.92;101389.13;5021352;28;20060;-79
2022/10/09 10:14:16;;;;;;;6.10;3.22;;;;;;;23.58;51.53;101385.06;5010475;28;20045;-81
2022/10/09 10:16:48;;;;;;;5.25;2.67;;;;;;;23.61;51.75;101387.16;5010013;28;20034;-81
2022/10/09 10:19:25;;;;;;;3.40;3.10;;;;;;;23.70;51.05;101389.84;5011010;28;20390;-81
2022/10/09 10:22:06;;;;;;;4.57;2.90;;;;;;;23.61;51.66;101385.16;5014439;28;20496;-80
2022/10/09 10:24:42;;;;;;;5.32;3.03;;;;;;;23.65;50.91;101385.28;5020311;28;20411;-80
2022/10/09 10:27:21;;;;;;;9.55;3.17;;;;;;;23.72;51.39;101374.34;5029730;28;20056;-80
2022/10/09 10:29:55;;;;;;;30.52;4.72;;;;;;;23.73;51.49;101383.53;5028069;28;20045;-80
2022/10/09 10:32:33;;;;;;;9.10;3.80;;;;;;;23.76;51.73;101388.44;5030944;28;20373;-82
2022/10/09 10:35:03;;;;;;;12.18;3.35;;;;;;;23.74;50.19;101396.31;5035696;28;20053;-81
2022/10/09 10:37:53;;;;;;;5.45;3.65;;;;;;;23.79;51.44;101379.31;5034118;28;20116;-81
2022/10/09 10:40:27;;;;;;;4.97;3.00;;;;;;;23.82;51.82;101384.22;5022471;28;20050;-83
2022/10/09 10:43:13;;;;;;;4.72;3.38;;;;;;;23.92;51.02;101379.31;5033975;28;20057;-79
2022/10/09 10:45:51;;;;;;;3.45;3.15;;;;;;;24.08;50.97;101377.44;5033574;28;20064;-81
2022/10/09 10:48:27;;;;;;;6.75;3.28;;;;;;;24.11;50.58;101373.94;5030857;28;20064;-81
2022/10/09 10:51:23;;;;;;;3.53;3.22;;;;;;;24.32;50.88;101372.94;5033595;28;20389;-81
2022/10/09 10:54:23;;;;;;;8.10;3.85;;;;;;;24.53;50.42;101375.50;5022032;28;20068;-82
2022/10/09 10:57:06;;;;;;;9.43;4.07;;;;;;;24.40;50.27;101377.53;5033896;28;20503;-82
2022/10/09 10:59:43;;;;;;;7.30;3.70;;;;;;;24.39;50.29;101381.50;5032030;28;20069;-82
2022/10/09 11:02:42;;;;;;;3.88;3.08;;;;;;;24.50;49.47;101370.66;5032039;28;20057;-81
2022/10/09 11:05:31;;;;;;;4.40;3.47;;;;;;;24.42;49.84;101375.22;5031870;28;20061;-80
2022/10/09 11:08:20;;;;;;;3.90;3.42;;;;;;;24.46;49.80;101380.09;5031625;28;20046;-81
2022/10/09 11:10:50;;;;;;;5.65;2.92;;;;;;;24.27;49.15;101368.41;5031086;28;20049;-78
2022/10/09 11:13:25;;;;;;;3.10;2.50;;;;;;;23.61;50.42;101382.38;5030581;28;20637;-72
2022/10/09 11:16:04;;;;;;;6.20;3.75;;;;;;;23.48;50.93;101373.22;5031612;28;20040;-71
2022/10/09 11:18:59;;;;;;;6.55;3.10;;;;;;;24.13;50.21;101379.16;5029500;28;20473;-82
2022/10/09 11:21:52;;;;;;;4.45;2.85;;;;;;;24.29;49.56;101365.22;4995959;28;20057;-82
2022/10/09 11:24:32;;;;;;;6.20;3.03;;;;;;;24.36;49.95;101371.06;5043366;28;20053;-83
2022/10/09 11:27:11;;;;;;;3.55;3.05;;;;;;;24.42;48.95;101375.22;5030470;28;20476;-85
2022/10/09 11:29:51;;;;;;;4.22;2.97;;;;;;;24.43;49.14;101359.22;5013355;28;20476;-85
2022/10/09 11:32:35;;;;;;;3.17;2.85;;;;;;;24.42;49.39;101369.63;4998063;28;20053;-88
2022/10/09 11:35:03;;;;;;;3.28;2.58;;;;;;;24.45;49.03;101362.50;4996276;28;20060;-84
2022/10/09 11:37:38;;;;;;;3.50;2.60;;;;;;;24.57;48.47;101364.41;5026492;28;20046;-83
2022/10/09 11:40:12;;;;;;;3.28;2.63;;;;;;;24.46;48.35;101366.94;4995443;28;20052;-86